Time;durP1;ratioP1;P1;durP2;ratioP2;P2;SDS_P1;SDS_P2;PMS_P1;PMS_P2;Temp;Humidity;BMP_temperature;BMP_pressure;BME280_temperature;BME280_humidity;BME280_pressure;Samples;Min_cycle;Max_cycle;Signal;HPM_P1;HPM_P2
2021/04/01 00:00:11;;;;;;;79.78;36.78;;;14.60;99.90;;;;;;5025351;28;20050;-81
2021/04/01 00:02:37;;;;;;;82.65;35.80;;;14.60;99.90;;;;;;5028432;28;20056;-80
2021/04/01 00:05:06;;;;;;;80.32;36.30;;;14.60;99.90;;;;;;5046048;28;20052;-80
2021/04/01 00:07:32;;;;;;;76.22;36.03;;;14.60;99.90;;;;;;5038076;28;20099;-80
2021/04/01 00:09:59;;;;;;;79.50;36.13;;;14.60;99.90;;;;;;5025499;28;20109;-80
2021/04/01 00:12:26;;;;;;;78.50;35.90;;;14.60;99.90;;;;;;5028726;28;20091;-80
2021/04/01 00:14:52;;;;;;;80.07;37.08;;;14.60;99.90;;;;;;5028529;28;20077;-80
2021/04/01 00:17:18;;;;;;;80.93;35.38;;;14.50;99.90;;;;;;5024212;28;20065;-80
2021/04/01 00:19:45;;;;;;;75.68;36.50;;;14.50;99.90;;;;;;5044889;28;20471;-80
2021/04/01 00:22:11;;;;;;;75.47;35.25;;;14.50;99.90;;;;;;5027499;28;20581;-80
2021/04/01 00:24:37;;;;;;;75.00;35.22;;;14.40;99.90;;;;;;5025341;28;20048;-80
2021/04/01 00:27:04;;;;;;;77.05;36.47;;;14.40;99.90;;;;;;5027061;28;20579;-80
2021/04/01 00:29:31;;;;;;;76.43;36.65;;;14.30;99.90;;;;;;5021749;28;20057;-80
2021/04/01 00:31:57;;;;;;;85.43;37.25;;;14.20;99.90;;;;;;5022807;28;20053;-81
2021/04/01 00:34:23;;;;;;;88.75;37.88;;;14.00;99.90;;;;;;5024595;28;20470;-81
2021/04/01 00:36:50;;;;;;;79.72;36.95;;;13.90;99.90;;;;;;5023809;28;20067;-81
2021/04/01 00:39:16;;;;;;;76.28;37.65;;;13.80;99.90;;;;;;5027161;28;20083;-81
2021/04/01 00:41:42;;;;;;;80.25;36.17;;;13.80;99.90;;;;;;5025716;28;20049;-81
2021/04/01 00:44:09;;;;;;;81.32;36.38;;;13.70;99.90;;;;;;5025472;28;20571;-81
2021/04/01 00:46:36;;;;;;;80.88;37.03;;;13.70;99.90;;;;;;5024997;28;20106;-81
2021/04/01 00:49:03;;;;;;;82.78;38.15;;;13.60;99.90;;;;;;5026349;28;20071;-81
2021/04/01 00:51:29;;;;;;;81.78;37.55;;;13.60;99.90;;;;;;5044670;28;20069;-81
2021/04/01 00:53:56;;;;;;;77.10;36.08;;;13.60;99.90;;;;;;5044271;28;20079;-81
2021/04/01 00:56:24;;;;;;;94.45;36.83;;;13.50;99.90;;;;;;5023369;28;20140;-81
2021/04/01 00:58:52;;;;;;;81.32;37.08;;;13.50;99.90;;;;;;5026249;28;20537;-81
2021/04/01 01:03:50;;;;;;;80.53;35.25;;;13.40;99.90;;;;;;5042998;28;20073;-81
2021/04/01 01:06:17;;;;;;;84.22;35.95;;;13.40;99.90;;;;;;5024211;28;20060;-80
2021/04/01 01:08:44;;;;;;;77.53;34.95;;;13.30;99.90;;;;;;5039611;28;20052;-80
2021/04/01 01:11:10;;;;;;;79.05;36.13;;;13.30;99.90;;;;;;5038676;28;20057;-80
2021/04/01 01:13:37;;;;;;;85.00;37.78;;;13.20;99.90;;;;;;5022608;28;20554;-80
2021/04/01 01:16:04;;;;;;;80.80;37.83;;;13.20;99.90;;;;;;5024842;28;20148;-80
2021/04/01 01:18:30;;;;;;;84.80;38.22;;;13.20;99.90;;;;;;5023234;28;20390;-81
2021/04/01 01:20:59;;;;;;;79.22;35.45;;;13.20;99.90;;;;;;5021383;28;20063;-80
2021/04/01 01:23:30;;;;;;;86.07;39.30;;;13.20;99.90;;;;;;5027025;28;20076;-80
2021/04/01 01:25:57;;;;;;;82.43;35.15;;;13.30;99.90;;;;;;5023534;28;20065;-80
2021/04/01 01:28:24;;;;;;;86.35;36.38;;;13.30;99.90;;;;;;5025294;28;20080;-80
2021/04/01 01:30:51;;;;;;;78.57;35.10;;;13.40;99.90;;;;;;5024860;28;20094;-80
2021/04/01 01:33:23;;;;;;;78.38;35.05;;;13.40;99.90;;;;;;5025773;28;20052;-81
2021/04/01 01:35:52;;;;;;;79.85;34.97;;;13.40;99.90;;;;;;5026001;28;20053;-80
2021/04/01 01:38:19;;;;;;;80.90;34.95;;;13.50;99.90;;;;;;5038733;28;20076;-80
2021/04/01 01:40:46;;;;;;;75.38;32.67;;;13.50;99.90;;;;;;5025500;28;20386;-81
2021/04/01 01:43:14;;;;;;;85.25;36.05;;;13.60;99.90;;;;;;5022075;28;20080;-80
2021/04/01 01:45:42;;;;;;;74.65;34.17;;;13.60;99.90;;;;;;5025675;28;20049;-80
2021/04/01 01:48:09;;;;;;;81.70;36.00;;;13.60;99.90;;;;;;5014674;28;20063;-81
2021/04/01 01:50:38;;;;;;;83.03;35.13;;;13.60;99.90;;;;;;5024904;28;20052;-80
2021/04/01 01:53:06;;;;;;;85.32;36.20;;;13.60;99.90;;;;;;5037887;28;20083;-80
2021/04/01 01:55:33;;;;;;;84.35;37.67;;;13.60;99.90;;;;;;5029158;28;20049;-80
2021/04/01 01:58:00;;;;;;;81.70;36.50;;;13.60;99.90;;;;;;5042199;28;20132;-80
2021/04/01 02:00:34;;;;;;;89.30;35.55;;;13.60;99.90;;;;;;5042624;28;20135;-80
2021/04/01 02:03:06;;;;;;;83.88;35.60;;;13.70;99.90;;;;;;5027343;28;20080;-80
2021/04/01 02:05:33;;;;;;;83.18;34.00;;;13.70;99.90;;;;;;5029249;28;20135;-80
2021/04/01 02:08:00;;;;;;;84.05;35.28;;;13.70;99.90;;;;;;5042893;28;20123;-81
2021/04/01 02:10:39;;;;;;;84.13;35.83;;;13.70;99.90;;;;;;5030819;28;20092;-80
2021/04/01 02:13:06;;;;;;;86.95;34.80;;;13.70;99.90;;;;;;5027071;28;20104;-80
2021/04/01 02:15:43;;;;;;;83.22;35.03;;;13.70;99.90;;;;;;5026819;28;20054;-81
2021/04/01 02:18:10;;;;;;;84.40;35.38;;;13.70;99.90;;;;;;5040949;28;20076;-80
2021/04/01 02:20:43;;;;;;;88.43;37.20;;;13.70;99.90;;;;;;5039988;28;20075;-80
2021/04/01 02:23:19;;;;;;;90.50;37.17;;;13.70;99.90;;;;;;5038332;28;20079;-80
2021/04/01 02:25:47;;;;;;;87.07;37.00;;;13.60;99.90;;;;;;5028402;28;21095;-80
2021/04/01 02:28:15;;;;;;;81.40;35.83;;;13.60;99.90;;;;;;5042449;28;20048;-80
2021/04/01 02:30:45;;;;;;;88.50;36.20;;;13.60;99.90;;;;;;5023236;28;20128;-80
2021/04/01 02:33:11;;;;;;;87.95;36.20;;;13.60;99.90;;;;;;5019704;28;20581;-80
2021/04/01 02:35:39;;;;;;;79.15;35.83;;;13.60;99.90;;;;;;5041236;28;20117;-80
2021/04/01 02:38:06;;;;;;;87.43;37.55;;;13.60;99.90;;;;;;5024315;28;20507;-81
2021/04/01 02:40:35;;;;;;;91.50;37.53;;;13.60;99.90;;;;;;5025821;28;20161;-80
2021/04/01 02:43:02;;;;;;;84.55;35.80;;;13.50;99.90;;;;;;5026019;28;20044;-81
2021/04/01 02:45:28;;;;;;;88.32;38.65;;;13.50;99.90;;;;;;5023463;28;20485;-80
2021/04/01 02:47:55;;;;;;;90.38;37.15;;;13.40;99.90;;;;;;5026522;28;20049;-80
2021/04/01 02:50:21;;;;;;;96.80;38.80;;;13.30;99.90;;;;;;5027501;28;20456;-82
2021/04/01 02:52:48;;;;;;;88.38;37.67;;;13.30;99.90;;;;;;5022321;28;20223;-80
2021/04/01 02:55:14;;;;;;;93.00;38.10;;;13.10;99.90;;;;;;5041634;28;20059;-80
2021/04/01 02:57:41;;;;;;;91.95;38.30;;;13.00;99.90;;;;;;5021573;28;20415;-80
2021/04/01 03:00:11;;;;;;;87.07;37.65;;;12.90;99.90;;;;;;5022489;28;20061;-80
2021/04/01 03:02:41;;;;;;;91.80;40.25;;;12.80;99.90;;;;;;5025662;28;20069;-81
2021/04/01 03:05:08;;;;;;;88.43;36.78;;;12.70;99.90;;;;;;5024685;28;20044;-81
2021/04/01 03:07:35;;;;;;;92.82;37.85;;;12.60;99.90;;;;;;5042709;28;20160;-80
2021/04/01 03:10:12;;;;;;;84.88;35.95;;;12.50;99.90;;;;;;5024105;28;20515;-81
2021/04/01 03:12:40;;;;;;;95.60;39.85;;;12.40;99.90;;;;;;5035017;28;20482;-81
2021/04/01 03:15:09;;;;;;;95.30;39.47;;;12.40;99.90;;;;;;5040757;28;20049;-81
2021/04/01 03:17:37;;;;;;;96.53;39.30;;;12.30;99.90;;;;;;5021043;28;20084;-81
2021/04/01 03:20:04;;;;;;;103.78;40.70;;;12.20;99.90;;;;;;5021856;28;20063;-81
2021/04/01 03:22:30;;;;;;;96.40;39.58;;;12.10;99.90;;;;;;5040019;28;20064;-80
2021/04/01 03:24:56;;;;;;;103.35;42.35;;;12.10;99.90;;;;;;5027903;28;20521;-80
2021/04/01 03:27:23;;;;;;;96.15;41.20;;;12.10;99.90;;;;;;5040874;28;20133;-80
2021/04/01 03:30:08;;;;;;;106.10;42.60;;;12.00;99.90;;;;;;5026358;28;20069;-80
2021/04/01 03:32:45;;;;;;;107.88;43.65;;;12.00;99.90;;;;;;5042484;28;20079;-81
2021/04/01 03:35:18;;;;;;;123.38;47.88;;;11.90;99.90;;;;;;5042347;28;20679;-81
2021/04/01 03:37:47;;;;;;;118.93;48.93;;;11.80;99.90;;;;;;5019976;28;20045;-81
2021/04/01 03:40:14;;;;;;;118.28;50.05;;;11.80;99.90;;;;;;5022370;28;20854;-81
2021/04/01 03:42:40;;;;;;;126.70;52.20;;;11.70;99.90;;;;;;5036709;28;20053;-80
2021/04/01 03:45:09;;;;;;;125.07;50.97;;;11.70;99.90;;;;;;5023365;28;20407;-80
2021/04/01 03:47:37;;;;;;;124.68;51.55;;;11.70;99.90;;;;;;5024595;28;20052;-81
2021/04/01 03:50:08;;;;;;;128.00;51.53;;;11.70;99.90;;;;;;5032600;28;20045;-81
2021/04/01 03:52:35;;;;;;;129.40;51.03;;;11.70;99.90;;;;;;5039280;28;20530;-81
2021/04/01 03:55:13;;;;;;;123.40;49.58;;;11.60;99.90;;;;;;5042285;28;20068;-80
2021/04/01 03:57:41;;;;;;;126.07;50.15;;;11.60;99.90;;;;;;5042115;28;20049;-81
2021/04/01 04:00:16;;;;;;;131.88;51.50;;;11.60;99.90;;;;;;5023097;28;20127;-81
2021/04/01 04:08:12;;;;;;;126.22;47.70;;;11.50;99.90;;;;;;5043893;28;20046;-81
2021/04/01 04:11:06;;;;;;;127.20;52.00;;;11.40;99.90;;;;;;5040329;28;20059;-81
2021/04/01 04:14:09;;;;;;;131.18;51.47;;;11.40;99.90;;;;;;5044866;28;20041;-81
2021/04/01 04:16:14;;;;;;;136.80;51.22;;;11.40;99.90;;;;;;5036614;28;20061;-81
2021/04/01 04:18:41;;;;;;;124.95;50.38;;;11.40;99.90;;;;;;5021223;28;24349;-81
2021/04/01 04:21:07;;;;;;;130.85;50.42;;;11.30;99.90;;;;;;5049523;28;20108;-81
2021/04/01 04:23:36;;;;;;;130.55;49.83;;;11.20;99.90;;;;;;5032535;28;20510;-81
2021/04/01 04:26:02;;;;;;;128.77;48.95;;;11.20;99.90;;;;;;5035266;28;20068;-81
2021/04/01 04:28:32;;;;;;;132.70;50.67;;;11.10;99.90;;;;;;5048309;28;20045;-81
2021/04/01 04:30:59;;;;;;;132.27;50.28;;;11.00;99.90;;;;;;5044834;28;20077;-80
2021/04/01 04:33:27;;;;;;;136.80;52.65;;;11.00;99.90;;;;;;5026441;28;20045;-80
2021/04/01 04:35:55;;;;;;;136.88;53.20;;;11.00;99.90;;;;;;5029419;28;20059;-81
2021/04/01 04:38:21;;;;;;;133.23;52.67;;;11.00;99.90;;;;;;5026268;28;20488;-80
2021/04/01 04:40:49;;;;;;;130.60;52.00;;;11.00;99.90;;;;;;5028061;28;20458;-80
2021/04/01 04:43:15;;;;;;;128.10;51.78;;;10.90;99.90;;;;;;5027040;28;20127;-81
2021/04/01 04:45:41;;;;;;;135.07;53.67;;;10.90;99.90;;;;;;5023542;28;20133;-81
2021/04/01 04:48:08;;;;;;;131.90;51.83;;;10.90;99.90;;;;;;5032885;28;20071;-81
2021/04/01 04:50:34;;;;;;;135.35;53.95;;;10.90;99.90;;;;;;5045601;28;20054;-81
2021/04/01 04:53:01;;;;;;;139.55;53.70;;;10.90;99.90;;;;;;5027687;28;20068;-81
2021/04/01 04:55:27;;;;;;;134.13;52.50;;;10.90;99.90;;;;;;5027874;28;20043;-81
2021/04/01 05:00:53;;;;;;;145.13;54.75;;;10.80;99.90;;;;;;5045464;28;20048;-82
2021/04/01 05:06:04;;;;;;;142.65;55.22;;;10.70;99.90;;;;;;5043636;28;20080;-81
2021/04/01 05:08:32;;;;;;;141.63;53.40;;;10.70;99.90;;;;;;5024690;28;20056;-81
2021/04/01 05:10:58;;;;;;;150.13;57.47;;;10.60;99.90;;;;;;5028735;28;20083;-81
2021/04/01 05:13:25;;;;;;;142.98;54.42;;;10.60;99.90;;;;;;5028364;28;20068;-81
2021/04/01 05:15:52;;;;;;;142.73;56.35;;;10.60;99.90;;;;;;5032618;28;20065;-81
2021/04/01 05:20:50;;;;;;;133.60;52.88;;;10.50;99.90;;;;;;5044153;28;20128;-80
2021/04/01 05:25:52;;;;;;;148.27;55.72;;;10.40;99.90;;;;;;5043981;28;20057;-80
2021/04/01 05:28:34;;;;;;;148.48;58.42;;;10.40;99.90;;;;;;5028138;28;20071;-79
2021/04/01 05:31:09;;;;;;;145.05;59.72;;;10.40;99.90;;;;;;5023852;28;20040;-80
2021/04/01 05:33:38;;;;;;;143.45;57.67;;;10.40;99.90;;;;;;5028302;28;20141;-80
2021/04/01 05:36:09;;;;;;;147.02;57.67;;;10.30;99.90;;;;;;5023816;28;22596;-80
2021/04/01 05:38:36;;;;;;;139.25;59.45;;;10.30;99.90;;;;;;5021514;28;20132;-80
2021/04/01 05:41:02;;;;;;;139.43;58.63;;;10.30;99.90;;;;;;5013496;28;20053;-80
2021/04/01 05:43:33;;;;;;;136.43;58.40;;;10.30;99.90;;;;;;5025518;28;20049;-80
2021/04/01 05:46:37;;;;;;;137.75;56.15;;;10.20;99.90;;;;;;5022198;28;20377;-79
2021/04/01 05:49:12;;;;;;;145.90;58.47;;;10.20;99.90;;;;;;5035083;28;20121;-79
2021/04/01 05:51:59;;;;;;;134.82;55.90;;;10.20;99.90;;;;;;5029623;28;20420;-80
2021/04/01 05:55:07;;;;;;;127.65;54.65;;;10.20;99.90;;;;;;5026343;28;20042;-81
2021/04/01 06:00:35;;;;;;;132.20;56.78;;;10.20;99.90;;;;;;5031194;28;20136;-80
2021/04/01 06:03:20;;;;;;;130.75;57.35;;;10.20;99.90;;;;;;5013119;28;20131;-77
2021/04/01 06:05:48;;;;;;;125.20;55.25;;;10.20;99.90;;;;;;5030825;28;20148;-78
2021/04/01 06:08:17;;;;;;;133.45;55.33;;;10.20;99.90;;;;;;5015800;28;20045;-78
2021/04/01 06:10:44;;;;;;;135.68;59.95;;;10.20;99.90;;;;;;5032172;28;20045;-79
2021/04/01 06:13:13;;;;;;;140.02;57.15;;;10.20;99.90;;;;;;5035158;28;20143;-80
2021/04/01 06:15:43;;;;;;;128.75;57.95;;;10.20;99.90;;;;;;5020873;28;20136;-79
2021/04/01 06:18:11;;;;;;;134.98;55.78;;;10.20;99.90;;;;;;5036514;28;20706;-80
2021/04/01 06:20:39;;;;;;;130.43;58.10;;;10.20;99.90;;;;;;5041638;28;20033;-79
2021/04/01 06:23:06;;;;;;;120.10;54.17;;;10.20;99.90;;;;;;5007801;28;20140;-80
2021/04/01 06:25:39;;;;;;;124.13;56.30;;;10.20;99.90;;;;;;5022075;28;20045;-80
2021/04/01 06:28:09;;;;;;;120.18;56.22;;;10.20;99.90;;;;;;5025451;28;20071;-80
2021/04/01 06:30:45;;;;;;;130.02;55.25;;;10.30;99.90;;;;;;5020691;28;20056;-80
2021/04/01 06:33:13;;;;;;;130.35;57.00;;;10.30;99.90;;;;;;5031321;28;20041;-80
2021/04/01 06:36:02;;;;;;;123.63;57.78;;;10.30;99.90;;;;;;5036042;28;20072;-79
2021/04/01 06:38:35;;;;;;;114.13;54.47;;;10.40;99.90;;;;;;5005241;28;20048;-80
2021/04/01 06:41:05;;;;;;;117.17;56.97;;;10.40;99.90;;;;;;5019000;28;20109;-79
2021/04/01 06:43:45;;;;;;;112.07;47.20;;;10.40;99.90;;;;;;5015657;28;20164;-79
2021/04/01 06:46:14;;;;;;;115.55;53.58;;;10.40;99.90;;;;;;5006977;28;20148;-81
2021/04/01 06:49:03;;;;;;;119.80;56.40;;;10.40;99.90;;;;;;5016590;28;20067;-79
2021/04/01 06:51:41;;;;;;;120.80;53.90;;;10.40;99.90;;;;;;5024891;28;20089;-81
2021/04/01 06:54:16;;;;;;;106.47;50.42;;;10.40;99.90;;;;;;5024988;28;20503;-81
2021/04/01 06:57:56;;;;;;;103.10;47.33;;;10.40;99.90;;;;;;5011387;28;20396;-80
2021/04/01 07:03:03;;;;;;;86.60;40.45;;;10.30;99.90;;;;;;5024202;28;20063;-79
2021/04/01 07:05:51;;;;;;;84.35;36.25;;;10.30;99.90;;;;;;5024571;28;20552;-81
2021/04/01 07:08:25;;;;;;;83.75;36.35;;;10.40;99.90;;;;;;5012703;28;21497;-80
2021/04/01 07:10:53;;;;;;;77.97;35.75;;;10.30;99.90;;;;;;5005283;28;20399;-81
2021/04/01 07:13:30;;;;;;;72.47;30.95;;;10.40;99.90;;;;;;5018046;28;20052;-81
2021/04/01 07:16:33;;;;;;;39.15;16.48;;;10.50;99.90;;;;;;5013928;28;20072;-81
2021/04/01 07:47:41;;;;;;;15.15;4.50;;;11.10;99.90;;;;;;5048518;28;20065;-82
2021/04/01 07:50:16;;;;;;;12.52;3.30;;;11.10;99.90;;;;;;5026516;28;20504;-79
2021/04/01 07:52:49;;;;;;;17.63;3.63;;;11.20;99.90;;;;;;5033011;28;20061;-80
2021/04/01 08:06:28;;;;;;;7.18;1.67;;;11.70;99.90;;;;;;5027489;28;20057;-79
2021/04/01 08:09:18;;;;;;;7.20;1.60;;;11.80;99.90;;;;;;5001887;28;21533;-80
2021/04/01 08:11:50;;;;;;;13.50;2.63;;;11.80;99.90;;;;;;5039369;28;20048;-78
2021/04/01 08:14:35;;;;;;;10.90;2.15;;;11.80;99.90;;;;;;5024207;28;20045;-78
2021/04/01 08:17:17;;;;;;;12.52;1.70;;;11.80;99.90;;;;;;5030576;28;20088;-78
2021/04/01 08:19:51;;;;;;;8.75;1.85;;;11.90;99.90;;;;;;5010331;28;20055;-78
2021/04/01 08:22:47;;;;;;;10.73;2.53;;;11.90;99.20;;;;;;5030032;28;20049;-78
2021/04/01 08:25:40;;;;;;;8.88;1.88;;;11.90;98.80;;;;;;5030982;28;20065;-78
2021/04/01 08:37:15;;;;;;;9.32;1.77;;;12.40;99.40;;;;;;5027418;28;20116;-79
2021/04/01 08:40:02;;;;;;;7.47;1.63;;;12.50;99.90;;;;;;5023476;28;20396;-78
2021/04/01 08:43:13;;;;;;;10.52;2.30;;;12.70;99.40;;;;;;5040401;28;20061;-78
2021/04/01 08:46:24;;;;;;;13.63;2.20;;;12.80;98.50;;;;;;5025249;28;20056;-79
2021/04/01 08:49:26;;;;;;;11.70;3.15;;;12.90;98.20;;;;;;5021849;28;20057;-79
2021/04/01 08:52:20;;;;;;;8.38;1.67;;;13.00;97.60;;;;;;5041970;28;20067;-79
2021/04/01 08:55:01;;;;;;;13.98;1.92;;;13.10;97.40;;;;;;5018184;28;20071;-80
2021/04/01 08:57:36;;;;;;;15.90;1.70;;;13.20;97.10;;;;;;5036942;28;20056;-80
2021/04/01 09:00:11;;;;;;;10.63;1.83;;;13.20;97.40;;;;;;5034198;28;20135;-80
2021/04/01 09:02:38;;;;;;;12.05;1.92;;;13.30;96.50;;;;;;5027562;28;20055;-80
2021/04/01 09:05:08;;;;;;;9.95;1.98;;;13.20;96.40;;;;;;5038889;28;20106;-80
2021/04/01 09:07:42;;;;;;;8.38;1.92;;;13.30;96.60;;;;;;5022023;28;20141;-80
2021/04/01 09:12:50;;;;;;;9.60;2.55;;;13.30;96.70;;;;;;5040468;28;20116;-80
2021/04/01 09:15:23;;;;;;;11.93;1.63;;;13.50;97.00;;;;;;5011349;28;20132;-80
2021/04/01 09:17:59;;;;;;;9.43;1.93;;;13.60;96.50;;;;;;5037992;28;20057;-81
2021/04/01 09:20:27;;;;;;;12.13;2.25;;;13.70;95.60;;;;;;5039570;28;20060;-81
2021/04/01 09:22:56;;;;;;;10.23;1.35;;;13.70;97.30;;;;;;5021190;28;20148;-80
2021/04/01 09:25:41;;;;;;;11.20;2.47;;;13.80;96.50;;;;;;5026492;28;20048;-80
2021/04/01 09:28:09;;;;;;;12.25;1.73;;;13.80;96.50;;;;;;5019518;28;20124;-81
2021/04/01 09:30:44;;;;;;;14.00;2.75;;;13.80;96.60;;;;;;5016580;28;20102;-80
2021/04/01 09:33:25;;;;;;;16.48;2.47;;;13.90;97.30;;;;;;5019288;28;20098;-80
2021/04/01 09:35:53;;;;;;;15.23;1.92;;;13.90;96.80;;;;;;5039929;28;20045;-79
2021/04/01 09:38:21;;;;;;;14.63;3.38;;;13.90;97.20;;;;;;5019998;28;20504;-79
2021/04/01 09:40:51;;;;;;;11.52;2.58;;;14.00;97.30;;;;;;5037421;28;20079;-79
2021/04/01 09:43:22;;;;;;;13.10;2.28;;;13.90;97.90;;;;;;5038489;28;20542;-79
2021/04/01 09:45:52;;;;;;;11.25;2.15;;;13.80;98.90;;;;;;5022417;28;20052;-79
2021/04/01 09:48:28;;;;;;;13.32;3.33;;;13.90;99.20;;;;;;5023681;28;20510;-79
2021/04/01 09:50:59;;;;;;;13.35;2.45;;;14.00;98.60;;;;;;5022927;28;20550;-79
2021/04/01 09:53:27;;;;;;;13.43;2.85;;;14.00;98.90;;;;;;5012320;28;20129;-79
2021/04/01 09:55:57;;;;;;;14.35;2.47;;;14.00;99.00;;;;;;5027762;28;20471;-81
2021/04/01 09:58:36;;;;;;;13.40;2.42;;;14.10;98.60;;;;;;5035369;28;20045;-81
2021/04/01 10:04:06;;;;;;;17.67;3.03;;;14.10;98.60;;;;;;5032851;28;20474;-78
2021/04/01 10:06:49;;;;;;;7.22;1.98;;;14.20;98.20;;;;;;5009006;28;20164;-79
2021/04/01 10:09:23;;;;;;;8.77;1.65;;;14.30;97.80;;;;;;5005283;28;20073;-80
2021/04/01 10:11:54;;;;;;;10.65;2.13;;;14.30;97.40;;;;;;5024515;28;20061;-81
2021/04/01 10:14:21;;;;;;;11.02;2.42;;;14.30;97.40;;;;;;4999864;28;20420;-82
2021/04/01 10:16:58;;;;;;;12.50;2.20;;;14.40;97.60;;;;;;5019447;28;20108;-81
2021/04/01 10:19:33;;;;;;;8.07;2.65;;;14.40;97.10;;;;;;5011042;28;20049;-80
2021/04/01 10:22:00;;;;;;;11.05;2.35;;;14.40;98.20;;;;;;5038109;28;20049;-79
2021/04/01 10:24:34;;;;;;;9.10;1.85;;;14.50;97.40;;;;;;5022913;28;20113;-81
2021/04/01 10:29:42;;;;;;;8.70;1.55;;;14.70;97.30;;;;;;5038143;28;20125;-79
2021/04/01 10:32:10;;;;;;;8.82;1.83;;;14.80;96.80;;;;;;5039049;28;20046;-81
2021/04/01 10:34:53;;;;;;;10.18;2.28;;;15.00;96.30;;;;;;5043474;28;20488;-82
2021/04/01 10:37:22;;;;;;;8.90;2.10;;;15.00;96.30;;;;;;5012390;28;21756;-81
2021/04/01 10:39:50;;;;;;;7.15;1.55;;;15.20;95.30;;;;;;4993987;28;20894;-81
2021/04/01 10:42:25;;;;;;;26.63;2.47;;;15.20;93.80;;;;;;5036890;28;20475;-81
2021/04/01 10:45:03;;;;;;;9.57;1.85;;;15.10;94.20;;;;;;5043544;28;20099;-81
2021/04/01 10:47:57;;;;;;;5.68;1.48;;;15.10;93.60;;;;;;5030424;28;20105;-81
2021/04/01 10:50:27;;;;;;;9.90;2.70;;;15.20;92.60;;;;;;5024217;28;20061;-80
2021/04/01 10:52:57;;;;;;;12.02;2.00;;;15.10;93.10;;;;;;5025734;28;20053;-80
2021/04/01 10:55:26;;;;;;;17.83;2.05;;;15.20;93.20;;;;;;5021417;28;20144;-80
2021/04/01 10:57:53;;;;;;;11.27;2.53;;;15.10;94.30;;;;;;5031017;28;20156;-81
2021/04/01 11:00:20;;;;;;;7.70;1.58;;;15.00;93.90;;;;;;5031310;28;20049;-80
2021/04/01 11:02:54;;;;;;;7.95;1.65;;;14.80;94.20;;;;;;5032625;28;20529;-80
2021/04/01 11:05:23;;;;;;;;;;;14.60;93.80;;;;;;5031636;28;20121;-81
2021/04/01 11:08:04;;;;;;;6.68;2.15;;;14.60;94.40;;;;;;5020509;28;20417;-79
2021/04/01 11:10:32;;;;;;;8.38;2.47;;;14.70;94.70;;;;;;5018863;28;20048;-79
2021/04/01 11:13:02;;;;;;;7.35;1.27;;;14.80;93.00;;;;;;5003916;28;20058;-79
2021/04/01 11:15:33;;;;;;;6.90;1.30;;;14.90;91.80;;;;;;5034465;28;20045;-80
2021/04/01 11:18:04;;;;;;;8.68;1.38;;;14.90;92.30;;;;;;5019387;28;20495;-80
2021/04/01 11:20:36;;;;;;;5.85;1.35;;;15.20;91.10;;;;;;5019627;28;20051;-80
2021/04/01 11:23:08;;;;;;;6.72;1.80;;;15.40;91.20;;;;;;5018533;28;20106;-81
2021/04/01 11:25:35;;;;;;;13.85;1.77;;;15.60;89.30;;;;;;5023441;28;20049;-79
2021/04/01 11:28:03;;;;;;;12.98;2.10;;;15.70;90.60;;;;;;5017956;28;20067;-79
2021/04/01 11:30:52;;;;;;;12.65;2.83;;;15.90;90.00;;;;;;5023033;28;20072;-78
2021/04/01 11:33:21;;;;;;;8.45;2.00;;;15.90;86.20;;;;;;5039583;28;20037;-79
2021/04/01 11:36:14;;;;;;;8.52;1.83;;;15.80;86.60;;;;;;5021171;28;20041;-79
2021/04/01 11:38:46;;;;;;;19.38;2.13;;;15.70;85.70;;;;;;5004366;28;20055;-81
2021/04/01 11:41:15;;;;;;;9.77;2.45;;;15.60;88.90;;;;;;5022036;28;20042;-80
2021/04/01 11:43:43;;;;;;;7.50;2.00;;;15.60;87.60;;;;;;5031626;28;20135;-80
2021/04/01 11:46:13;;;;;;;8.35;1.75;;;15.60;86.30;;;;;;5038045;28;20549;-80
2021/04/01 11:48:42;;;;;;;16.10;3.97;;;15.60;86.60;;;;;;5043349;28;20051;-80
2021/04/01 11:51:29;;;;;;;13.27;2.10;;;15.60;86.60;;;;;;5004165;28;20053;-78
2021/04/01 11:53:55;;;;;;;12.90;2.25;;;15.70;88.30;;;;;;5018407;28;20381;-80
2021/04/01 11:56:32;;;;;;;8.50;1.80;;;15.90;87.70;;;;;;5040125;28;20072;-80
2021/04/01 11:59:14;;;;;;;9.73;1.70;;;16.10;81.80;;;;;;5039350;28;20041;-81
2021/04/01 12:01:52;;;;;;;7.88;1.90;;;16.20;80.40;;;;;;5006064;28;20045;-81
2021/04/01 12:04:21;;;;;;;11.10;2.45;;;16.20;76.60;;;;;;5018334;28;20064;-79
2021/04/01 12:06:48;;;;;;;9.93;1.55;;;16.20;72.30;;;;;;5013892;28;20091;-80
2021/04/01 12:09:15;;;;;;;8.15;1.55;;;16.10;73.50;;;;;;5022960;28;20167;-80
2021/04/01 12:11:42;;;;;;;8.52;1.67;;;16.10;73.00;;;;;;5017265;28;20049;-81
2021/04/01 12:14:13;;;;;;;11.18;2.22;;;16.20;75.90;;;;;;5022793;28;21130;-79
2021/04/01 12:16:39;;;;;;;17.30;4.30;;;16.40;74.90;;;;;;5018760;28;20049;-80
2021/04/01 12:19:06;;;;;;;7.82;2.15;;;16.60;75.30;;;;;;5017512;28;20112;-80
2021/04/01 12:21:33;;;;;;;9.13;1.83;;;16.90;71.40;;;;;;5023128;28;20140;-82
2021/04/01 12:24:05;;;;;;;13.73;2.30;;;17.00;71.20;;;;;;5013691;28;20033;-80
2021/04/01 12:26:45;;;;;;;12.30;1.88;;;17.20;71.20;;;;;;5039562;28;20042;-81
2021/04/01 12:29:12;;;;;;;9.80;1.52;;;17.60;66.90;;;;;;5002787;28;20087;-82
2021/04/01 12:32:06;;;;;;;8.85;2.17;;;17.80;67.90;;;;;;5020294;28;20041;-81
2021/04/01 12:34:33;;;;;;;9.43;1.77;;;18.10;67.20;;;;;;5006545;28;20144;-81
2021/04/01 12:37:03;;;;;;;8.15;1.48;;;18.70;64.40;;;;;;5023673;28;20160;-81
2021/04/01 12:39:31;;;;;;;7.80;1.98;;;19.20;61.00;;;;;;5024451;28;20065;-79
2021/04/01 12:41:58;;;;;;;7.75;1.92;;;19.70;59.40;;;;;;5033526;28;20140;-80
2021/04/01 12:44:38;;;;;;;11.02;1.98;;;20.30;58.20;;;;;;5016716;28;20059;-82
2021/04/01 12:47:06;;;;;;;5.68;1.75;;;20.80;53.80;;;;;;5024357;28;20060;-80
2021/04/01 12:49:35;;;;;;;7.13;1.17;;;21.10;52.80;;;;;;5017574;28;20176;-82
2021/04/01 12:52:04;;;;;;;10.48;2.10;;;21.20;49.40;;;;;;5020241;28;20045;-82
2021/04/01 12:54:35;;;;;;;13.15;2.08;;;21.20;49.60;;;;;;5019110;28;20056;-81
2021/04/01 12:57:07;;;;;;;7.90;1.75;;;21.30;48.70;;;;;;5007950;28;20045;-81
2021/04/01 12:59:38;;;;;;;5.63;1.88;;;21.30;48.70;;;;;;5018570;28;20440;-80
2021/04/01 13:02:08;;;;;;;10.48;1.75;;;21.50;49.70;;;;;;5015699;28;20051;-81
2021/04/01 13:04:36;;;;;;;13.75;2.10;;;22.10;49.20;;;;;;5021487;28;20049;-81
2021/04/01 13:09:48;;;;;;;7.97;1.90;;;23.30;45.90;;;;;;5022849;28;20053;-82
2021/04/01 13:12:21;;;;;;;12.57;1.85;;;23.40;44.50;;;;;;5021837;28;20128;-81
2021/04/01 13:14:48;;;;;;;7.65;1.63;;;23.40;44.50;;;;;;5035030;28;20140;-81
2021/04/01 13:17:15;;;;;;;14.30;3.20;;;23.20;44.10;;;;;;5011543;28;20036;-80
2021/04/01 13:19:43;;;;;;;13.18;2.63;;;23.10;45.70;;;;;;5019358;28;20049;-80
2021/04/01 13:22:22;;;;;;;6.55;2.20;;;23.40;45.30;;;;;;5022882;28;20153;-81
2021/04/01 13:27:18;;;;;;;17.15;2.85;;;24.30;42.60;;;;;;5038615;28;20059;-82
2021/04/01 13:29:53;;;;;;;10.55;2.00;;;24.40;42.40;;;;;;5024051;28;20049;-82
2021/04/01 13:33:09;;;;;;;9.52;2.08;;;24.30;42.40;;;;;;5017728;28;20116;-81
2021/04/01 13:35:15;;;;;;;11.50;2.38;;;24.20;42.60;;;;;;5027687;28;20049;-78
2021/04/01 13:37:44;;;;;;;8.43;2.50;;;23.80;43.00;;;;;;5004061;28;20061;-79
2021/04/01 13:40:15;;;;;;;8.32;2.13;;;23.50;43.20;;;;;;5030832;28;20406;-79
2021/04/01 13:42:45;;;;;;;15.73;2.95;;;23.20;43.50;;;;;;5011830;28;20510;-79
2021/04/01 13:45:14;;;;;;;12.38;2.63;;;23.20;44.90;;;;;;5016680;28;20160;-82
2021/04/01 13:47:43;;;;;;;15.13;2.25;;;23.70;43.70;;;;;;5017515;28;20111;-81
2021/04/01 13:50:13;;;;;;;9.65;2.85;;;24.10;42.20;;;;;;5034642;28;20455;-81
2021/04/01 13:55:29;;;;;;;12.40;2.25;;;24.40;41.00;;;;;;5034531;28;20061;-81
2021/04/01 14:11:22;;;;;;;12.02;2.03;;;24.70;41.20;;;;;;5038146;28;21998;-83
2021/04/01 14:13:48;;;;;;;8.82;1.95;;;24.80;39.70;;;;;;5018494;28;20057;-82
2021/04/01 14:16:15;;;;;;;11.45;2.35;;;24.70;41.20;;;;;;5017198;28;20114;-84
2021/04/01 14:18:46;;;;;;;13.50;2.17;;;24.40;40.60;;;;;;5030646;28;20408;-82
2021/04/01 14:21:15;;;;;;;8.90;1.42;;;24.50;40.60;;;;;;5019574;28;20072;-82
2021/04/01 14:23:43;;;;;;;11.32;2.58;;;24.60;38.70;;;;;;5021313;28;20815;-82
2021/04/01 14:28:44;;;;;;;8.88;1.98;;;24.40;41.00;;;;;;5033044;28;20049;-80
2021/04/01 14:31:12;;;;;;;16.90;2.95;;;24.50;40.30;;;;;;5027050;28;20088;-82
2021/04/01 14:33:42;;;;;;;11.77;2.20;;;24.70;38.70;;;;;;5019221;28;20152;-81
2021/04/01 14:36:19;;;;;;;15.43;2.40;;;24.30;40.70;;;;;;5022766;28;20053;-83
2021/04/01 14:38:46;;;;;;;10.88;2.05;;;24.50;41.10;;;;;;5022375;28;20057;-82